createdAt,value
2023-04-08T00:00:44.615Z,6.10
2023-04-08T00:01:46.907Z,6.00
2023-04-08T00:02:49.354Z,6.90
2023-04-08T00:03:51.719Z,6.70
2023-04-08T00:04:54.235Z,6.90
2023-04-08T00:05:56.488Z,8.30
2023-04-08T00:06:59.649Z,7.70
2023-04-08T00:08:02.010Z,7.70
2023-04-08T00:09:04.180Z,7.00
2023-04-08T00:10:08.203Z,7.00
2023-04-08T00:11:10.505Z,7.70
2023-04-08T00:12:12.687Z,7.10
2023-04-08T00:13:14.862Z,6.00
2023-04-08T00:14:17.036Z,7.60
2023-04-08T00:15:20.961Z,7.20
2023-04-08T00:16:23.343Z,9.40
2023-04-08T00:17:25.612Z,7.80
2023-04-08T00:18:27.688Z,6.70
2023-04-08T00:19:29.817Z,8.00
2023-04-08T00:20:32.102Z,8.10
2023-04-08T00:21:34.299Z,7.50
2023-04-08T00:22:36.702Z,8.70
2023-04-08T00:23:38.873Z,6.00
2023-04-08T00:24:40.945Z,6.40
2023-04-08T00:25:43.280Z,7.20
2023-04-08T00:26:46.032Z,7.10
2023-04-08T00:27:48.279Z,6.60
2023-04-08T00:28:51.196Z,7.00
2023-04-08T00:29:53.744Z,7.00
2023-04-08T00:30:56.508Z,6.80
2023-04-08T00:31:58.961Z,7.10
2023-04-08T00:33:02.532Z,8.40
2023-04-08T00:34:04.901Z,7.36
2023-04-08T00:35:07.612Z,6.60
2023-04-08T00:36:10.857Z,8.10
2023-04-08T00:37:12.902Z,6.70
2023-04-08T00:38:15.278Z,6.80
2023-04-08T00:39:17.447Z,8.00
2023-04-08T00:40:20.831Z,6.90
2023-04-08T00:41:23.099Z,6.50
2023-04-08T00:42:25.640Z,6.80
2023-04-08T00:43:27.968Z,6.70
2023-04-08T00:44:30.141Z,6.00
2023-04-08T00:45:33.509Z,7.10
2023-04-08T00:46:38.606Z,7.80
2023-04-08T00:47:41.094Z,6.20
2023-04-08T00:48:43.916Z,6.90
2023-04-08T00:49:46.166Z,8.50
2023-04-08T00:50:50.418Z,6.00
2023-04-08T00:51:55.971Z,6.80
2023-04-08T00:53:03.054Z,6.00
2023-04-08T00:54:10.846Z,6.80
2023-04-08T00:55:15.692Z,7.30
2023-04-08T00:56:24.969Z,5.50
2023-04-08T00:57:34.423Z,6.90
2023-04-08T00:58:41.537Z,6.40
2023-04-08T00:59:46.135Z,6.90
2023-04-08T01:00:54.739Z,6.00
2023-04-08T01:02:02.086Z,7.70
2023-04-08T01:03:20.545Z,8.20
2023-04-08T01:05:58.502Z,8.50
2023-04-08T01:07:04.474Z,5.90
2023-04-08T01:08:09.566Z,6.30
2023-04-08T01:09:15.045Z,7.20
2023-04-08T01:10:24.934Z,6.70
2023-04-08T01:11:30.808Z,7.40
2023-04-08T01:12:36.993Z,6.10
2023-04-08T01:13:41.815Z,6.40
2023-04-08T01:14:46.542Z,5.10
2023-04-08T01:15:49.610Z,6.70
2023-04-08T01:16:58.411Z,7.20
2023-04-08T01:18:03.234Z,7.00
2023-04-08T01:19:08.310Z,6.70
2023-04-08T01:20:14.670Z,6.50
2023-04-08T01:21:19.751Z,7.50
2023-04-08T01:22:53.804Z,8.00
2023-04-08T01:24:26.948Z,8.40
2023-04-08T01:25:33.594Z,5.70
2023-04-08T01:26:36.741Z,7.20
2023-04-08T01:27:39.372Z,6.60
2023-04-08T01:28:41.828Z,6.90
2023-04-08T01:29:46.697Z,5.30
2023-04-08T01:30:50.164Z,6.60
2023-04-08T01:31:54.887Z,6.50
2023-04-08T01:32:59.471Z,7.20
2023-04-08T01:34:04.388Z,6.40
2023-04-08T01:35:08.870Z,7.40
2023-04-08T01:36:12.172Z,6.90
2023-04-08T01:37:15.519Z,7.20
2023-04-08T01:38:20.244Z,8.00
2023-04-08T01:39:25.809Z,6.10
2023-04-08T01:40:29.197Z,8.20
2023-04-08T01:41:35.084Z,8.60
2023-04-08T01:42:38.101Z,5.80
2023-04-08T01:43:43.469Z,7.09
2023-04-08T01:44:46.390Z,7.40
2023-04-08T01:45:49.921Z,6.73
2023-04-08T01:46:54.739Z,7.50
2023-04-08T01:47:59.433Z,8.50
2023-04-08T01:49:02.085Z,7.50
2023-04-08T01:50:06.199Z,7.30
2023-04-08T01:51:09.421Z,8.00
2023-04-08T01:52:12.955Z,6.30
2023-04-08T01:53:15.186Z,7.50
2023-04-08T01:54:17.651Z,6.90
2023-04-08T01:55:20.052Z,6.80
2023-04-08T01:56:23.090Z,6.80
2023-04-08T01:57:29.151Z,7.30
2023-04-08T01:59:45.118Z,8.20
2023-04-08T02:00:48.866Z,6.40
2023-04-08T02:01:52.895Z,7.30
2023-04-08T02:02:56.804Z,6.90
2023-04-08T02:04:01.505Z,6.50
2023-04-08T02:05:04.273Z,6.00
2023-04-08T02:06:07.077Z,7.10
2023-04-08T02:07:09.354Z,5.80
2023-04-08T02:08:12.177Z,5.60
2023-04-08T02:09:14.263Z,7.50
2023-04-08T02:10:16.524Z,7.10
2023-04-08T02:11:18.698Z,5.10
2023-04-08T02:12:21.412Z,6.30
2023-04-08T02:13:23.748Z,6.20
2023-04-08T02:14:25.939Z,6.40
2023-04-08T02:16:51.298Z,7.90
2023-04-08T02:17:57.225Z,6.70
2023-04-08T02:20:29.717Z,7.60
2023-04-08T02:21:35.606Z,7.00
2023-04-08T02:23:01.197Z,5.90
2023-04-08T02:24:07.000Z,6.80
2023-04-08T02:25:12.907Z,7.00
2023-04-08T02:26:16.941Z,7.20
2023-04-08T02:27:20.152Z,6.40
2023-04-08T02:28:25.170Z,6.10
2023-04-08T02:29:30.987Z,5.30
2023-04-08T02:30:35.475Z,6.30
2023-04-08T02:31:40.834Z,6.60
2023-04-08T02:32:45.877Z,6.90
2023-04-08T02:33:50.701Z,6.10
2023-04-08T02:34:55.581Z,6.00
2023-04-08T02:35:59.312Z,5.90
2023-04-08T02:37:02.769Z,6.20
2023-04-08T02:38:05.251Z,6.70
2023-04-08T02:39:07.866Z,7.10
2023-04-08T02:40:28.189Z,7.00
2023-04-08T02:41:31.414Z,5.20
2023-04-08T02:42:33.659Z,7.70
2023-04-08T02:43:35.836Z,7.00
2023-04-08T02:44:39.956Z,7.20
2023-04-08T02:45:43.870Z,5.30
2023-04-08T02:46:46.252Z,6.20
2023-04-08T02:47:48.623Z,7.00
2023-04-08T02:48:51.096Z,6.50
2023-04-08T02:49:53.611Z,5.00
2023-04-08T02:50:56.001Z,6.60
2023-04-08T02:51:58.267Z,6.70
2023-04-08T02:53:00.886Z,5.70
2023-04-08T02:54:03.292Z,5.50
2023-04-08T02:55:06.612Z,7.00
2023-04-08T02:56:12.452Z,7.10
2023-04-08T02:57:14.655Z,7.20
2023-04-08T02:58:17.116Z,6.40
2023-04-08T02:59:19.807Z,6.40
2023-04-08T03:00:22.080Z,5.90
2023-04-08T03:01:24.432Z,6.90
2023-04-08T03:02:26.739Z,6.80
2023-04-08T03:03:29.123Z,6.40
2023-04-08T03:04:31.403Z,3.30
2023-04-08T03:05:33.724Z,8.10
2023-04-08T03:06:36.197Z,7.10
2023-04-08T03:07:38.847Z,6.40
2023-04-08T03:08:41.064Z,5.50
2023-04-08T03:09:43.723Z,5.90
2023-04-08T03:10:46.264Z,8.45
2023-04-08T03:11:48.471Z,7.00
2023-04-08T03:12:50.729Z,7.30
2023-04-08T03:13:53.030Z,7.00
2023-04-08T03:14:55.733Z,6.80
2023-04-08T03:15:57.937Z,7.90
2023-04-08T03:17:00.516Z,7.00
2023-04-08T03:18:04.369Z,7.00
2023-04-08T03:19:07.116Z,6.10
2023-04-08T03:20:10.484Z,7.18
2023-04-08T03:21:13.863Z,7.60
2023-04-08T03:22:16.137Z,7.20
2023-04-08T03:23:18.421Z,2.40
2023-04-08T03:24:21.126Z,8.90
2023-04-08T03:25:23.359Z,8.00
2023-04-08T03:26:25.907Z,7.40
2023-04-08T03:27:28.444Z,8.40
2023-04-08T03:28:30.630Z,7.40
2023-04-08T03:29:32.954Z,6.40
2023-04-08T03:30:35.872Z,8.20
2023-04-08T03:31:38.353Z,6.64
2023-04-08T03:32:40.634Z,7.40
2023-04-08T03:33:42.976Z,7.90
2023-04-08T03:34:45.446Z,8.00
2023-04-08T03:35:47.687Z,8.20
2023-04-08T03:36:50.018Z,8.80
2023-04-08T03:37:52.153Z,7.40
2023-04-08T03:38:54.520Z,7.40
2023-04-08T03:39:57.458Z,9.50
2023-04-08T03:41:00.127Z,7.18
2023-04-08T03:42:02.889Z,6.60
2023-04-08T03:43:04.986Z,7.40
2023-04-08T03:44:07.058Z,8.80
2023-04-08T03:45:09.874Z,6.50
2023-04-08T03:46:12.302Z,8.27
2023-04-08T03:47:14.464Z,6.90
2023-04-08T03:48:16.658Z,7.90
2023-04-08T03:49:18.740Z,8.70
2023-04-08T03:50:21.528Z,7.90
2023-04-08T03:51:23.813Z,9.50
2023-04-08T03:52:26.484Z,10.20
2023-04-08T03:53:28.785Z,5.30
2023-04-08T03:54:31.029Z,8.60
2023-04-08T03:55:33.746Z,8.10
2023-04-08T03:56:36.065Z,8.55
2023-04-08T03:57:38.116Z,10.90
2023-04-08T03:58:40.316Z,9.90
2023-04-08T03:59:42.548Z,11.10
2023-04-08T04:00:44.800Z,9.30
2023-04-08T04:01:47.019Z,9.90
2023-04-08T04:02:49.402Z,11.40
2023-04-08T04:03:52.259Z,10.00
2023-04-08T04:04:54.781Z,10.20
2023-04-08T04:05:57.195Z,9.60
2023-04-08T04:06:59.720Z,9.20
2023-04-08T04:08:02.424Z,9.80
2023-04-08T04:09:04.427Z,9.30
2023-04-08T04:10:08.090Z,8.10
2023-04-08T04:11:10.318Z,9.45
2023-04-08T04:12:12.581Z,8.00
2023-04-08T04:13:14.763Z,8.60
2023-04-08T04:14:17.451Z,9.50
2023-04-08T04:15:19.541Z,8.90
2023-04-08T04:16:21.883Z,8.40
2023-04-08T04:17:24.609Z,8.40
2023-04-08T04:18:26.788Z,8.40
2023-04-08T04:19:32.168Z,8.90
2023-04-08T04:20:34.591Z,8.20
2023-04-08T04:21:36.757Z,9.20
2023-04-08T04:22:39.122Z,8.60
2023-04-08T04:23:41.308Z,10.70
2023-04-08T04:24:48.397Z,8.20
2023-04-08T04:25:50.637Z,8.80
2023-04-08T04:26:52.904Z,10.40
2023-04-08T04:27:55.556Z,9.10
2023-04-08T04:28:57.721Z,10.00
2023-04-08T04:30:00.363Z,8.40
2023-04-08T04:31:02.576Z,8.90
2023-04-08T04:32:05.164Z,9.50
2023-04-08T04:33:08.647Z,8.60
2023-04-08T04:34:10.849Z,7.70
2023-04-08T04:35:13.136Z,7.70
2023-04-08T04:36:16.566Z,7.90
2023-04-08T04:37:18.724Z,10.30
2023-04-08T04:38:20.928Z,10.20
2023-04-08T04:39:23.599Z,8.60
2023-04-08T04:40:25.903Z,9.10
2023-04-08T04:41:27.975Z,8.80
2023-04-08T04:42:30.453Z,10.40
2023-04-08T04:43:32.650Z,8.90
2023-04-08T04:44:34.834Z,8.30
2023-04-08T04:45:37.606Z,8.30
2023-04-08T04:46:39.958Z,10.60
2023-04-08T04:47:42.233Z,10.30
2023-04-08T04:48:44.472Z,10.80
2023-04-08T04:49:46.657Z,11.20
2023-04-08T04:50:56.465Z,10.00
2023-04-08T04:51:58.670Z,8.70
2023-04-08T04:53:00.733Z,7.30
2023-04-08T04:54:03.442Z,8.30
2023-04-08T04:55:06.362Z,8.10
2023-04-08T04:56:09.105Z,7.70
2023-04-08T04:57:11.171Z,7.30
2023-04-08T04:58:13.348Z,7.50
2023-04-08T04:59:15.606Z,9.10
2023-04-08T05:00:19.092Z,6.60
2023-04-08T05:01:23.384Z,6.80
2023-04-08T05:02:26.043Z,6.27
2023-04-08T05:03:29.026Z,7.10
2023-04-08T05:04:31.634Z,6.64
2023-04-08T05:05:33.888Z,5.40
2023-04-08T05:06:36.296Z,6.10
2023-04-08T05:07:38.713Z,5.80
2023-04-08T05:08:40.867Z,6.50
2023-04-08T05:09:42.815Z,5.70
2023-04-08T05:10:45.624Z,5.30
2023-04-08T05:11:48.249Z,4.70
2023-04-08T05:12:50.516Z,5.00
2023-04-08T05:13:52.866Z,6.30
2023-04-08T05:14:54.939Z,6.20
2023-04-08T05:15:57.586Z,7.10
2023-04-08T05:17:00.011Z,6.60
2023-04-08T05:18:02.136Z,6.20
2023-04-08T05:19:05.035Z,6.20
2023-04-08T05:20:10.059Z,6.90
2023-04-08T05:21:12.284Z,7.20
2023-04-08T05:22:14.384Z,6.70
2023-04-08T05:23:16.633Z,7.50
2023-04-08T05:24:18.807Z,6.20
2023-04-08T05:25:20.873Z,7.60
2023-04-08T05:26:23.115Z,6.70
2023-04-08T05:27:25.333Z,6.80
2023-04-08T05:28:27.587Z,6.80
2023-04-08T05:29:30.154Z,6.50
2023-04-08T05:30:32.815Z,5.60
2023-04-08T05:31:35.161Z,7.30
2023-04-08T05:32:37.456Z,6.60
2023-04-08T05:33:39.539Z,5.40
2023-04-08T05:34:42.903Z,6.40
2023-04-08T05:35:45.614Z,8.60
2023-04-08T05:37:58.705Z,7.60
2023-04-08T05:39:02.121Z,7.70
2023-04-08T05:40:06.355Z,6.90
2023-04-08T05:41:08.581Z,7.10
2023-04-08T05:42:10.629Z,6.40
2023-04-08T05:43:13.455Z,6.30
2023-04-08T05:44:15.783Z,7.18
2023-04-08T05:45:18.033Z,7.80
2023-04-08T05:46:20.665Z,7.60
2023-04-08T05:47:22.822Z,5.00
2023-04-08T05:48:25.585Z,6.30
2023-04-08T05:49:28.161Z,5.80
2023-04-08T05:50:30.521Z,6.50
2023-04-08T05:51:33.195Z,7.00
2023-04-08T05:52:35.369Z,5.70
2023-04-08T05:53:37.563Z,6.60
2023-04-08T05:54:45.002Z,5.20
2023-04-08T05:55:47.651Z,5.10
2023-04-08T05:56:50.280Z,6.20
2023-04-08T05:57:54.719Z,4.90
2023-04-08T06:00:33.502Z,5.60
2023-04-08T06:01:37.543Z,5.90
2023-04-08T06:02:43.139Z,6.30
2023-04-08T06:03:53.622Z,4.91
2023-04-08T06:04:57.895Z,6.50
2023-04-08T06:07:10.650Z,6.20
2023-04-08T06:08:12.839Z,6.20
2023-04-08T06:09:14.926Z,5.90
2023-04-08T06:10:18.115Z,5.50
2023-04-08T06:11:20.307Z,5.20
2023-04-08T06:12:22.426Z,4.70
2023-04-08T06:13:25.139Z,5.40
2023-04-08T06:14:27.294Z,4.20
2023-04-08T06:15:29.492Z,5.50
2023-04-08T06:16:31.668Z,5.30
2023-04-08T06:17:35.987Z,4.10
2023-04-08T06:18:38.444Z,5.40
2023-04-08T06:19:40.626Z,5.50
2023-04-08T06:20:43.411Z,5.40
2023-04-08T06:21:45.555Z,5.00
2023-04-08T06:22:47.747Z,5.40
2023-04-08T06:23:49.800Z,4.50
2023-04-08T06:24:51.961Z,5.10
2023-04-08T06:25:54.269Z,5.30
2023-04-08T06:26:56.555Z,5.10
2023-04-08T06:27:58.761Z,4.40
2023-04-08T06:29:00.936Z,4.30
2023-04-08T06:30:03.278Z,4.80
2023-04-08T06:31:05.623Z,4.80
2023-04-08T06:32:07.812Z,4.80
2023-04-08T06:33:10.513Z,3.50
2023-04-08T06:34:13.153Z,5.40
2023-04-08T06:35:15.490Z,5.40
2023-04-08T06:36:17.671Z,5.30
2023-04-08T06:37:20.642Z,3.40
2023-04-08T06:38:22.902Z,4.82
2023-04-08T06:39:25.101Z,4.50
2023-04-08T06:40:27.678Z,0.20
2023-04-08T06:41:30.362Z,4.10
2023-04-08T06:42:34.485Z,3.50
2023-04-08T06:43:44.533Z,4.20
2023-04-08T06:44:46.772Z,4.60
2023-04-08T06:45:49.385Z,6.30
2023-04-08T06:46:52.233Z,4.73
2023-04-08T06:47:54.930Z,5.90
2023-04-08T06:48:57.063Z,5.20
2023-04-08T06:49:59.255Z,5.00
2023-04-08T06:51:02.048Z,4.30
2023-04-08T06:52:04.287Z,5.10
2023-04-08T06:53:06.348Z,4.30
2023-04-08T06:54:09.077Z,4.40
2023-04-08T06:55:11.461Z,5.27
2023-04-08T06:56:14.394Z,4.55
2023-04-08T06:57:16.473Z,3.80
2023-04-08T06:58:18.648Z,4.60
2023-04-08T06:59:20.821Z,3.60
2023-04-08T07:00:24.178Z,3.70
2023-04-08T07:01:26.493Z,4.80
2023-04-08T07:02:28.835Z,4.40
2023-04-08T07:03:31.110Z,5.00
2023-04-08T07:04:33.351Z,3.80
2023-04-08T07:05:35.720Z,4.50
2023-04-08T07:06:38.535Z,4.80
2023-04-08T07:07:40.943Z,5.00
2023-04-08T07:08:43.110Z,3.90
2023-04-08T07:09:45.308Z,4.50
2023-04-08T07:10:47.677Z,3.00
2023-04-08T07:11:50.254Z,3.90
2023-04-08T07:12:53.581Z,0.50
2023-04-08T07:13:55.792Z,4.10
2023-04-08T07:14:58.375Z,5.40
2023-04-08T07:16:00.568Z,5.00
2023-04-08T07:17:02.781Z,4.60
2023-04-08T07:18:05.037Z,4.30
2023-04-08T07:19:07.194Z,3.80
2023-04-08T07:20:11.428Z,5.70
2023-04-08T07:21:14.488Z,4.20
2023-04-08T07:22:16.704Z,3.50
2023-04-08T07:23:20.517Z,3.80
2023-04-08T07:24:23.017Z,4.50
2023-04-08T07:25:25.190Z,3.20
2023-04-08T07:26:27.354Z,4.00
2023-04-08T07:27:29.434Z,4.00
2023-04-08T07:28:31.935Z,3.90
2023-04-08T07:29:33.974Z,3.80
2023-04-08T07:30:36.570Z,5.00
2023-04-08T07:31:38.806Z,4.30
2023-04-08T07:32:40.966Z,4.70
2023-04-08T07:33:44.612Z,3.80
2023-04-08T07:34:47.366Z,4.00
2023-04-08T07:35:49.433Z,3.30
2023-04-08T07:36:52.142Z,3.00
2023-04-08T07:38:01.683Z,4.70
2023-04-08T07:39:08.166Z,3.80
2023-04-08T07:40:11.615Z,2.70
2023-04-08T07:41:13.709Z,4.00
2023-04-08T07:42:15.878Z,4.60
2023-04-08T07:43:18.388Z,2.40
2023-04-08T07:44:20.483Z,3.30
2023-04-08T07:45:22.513Z,3.90
2023-04-08T07:46:25.300Z,3.00
2023-04-08T07:47:29.595Z,3.80
2023-04-08T07:48:33.621Z,4.60
2023-04-08T07:49:35.674Z,4.50
2023-04-08T07:51:08.067Z,4.00
2023-04-08T07:51:42.852Z,3.60
2023-04-08T07:52:44.950Z,5.10
2023-04-08T07:53:47.124Z,5.00
2023-04-08T07:54:49.224Z,4.50
2023-04-08T07:55:51.700Z,4.80
2023-04-08T07:56:54.327Z,4.40
2023-04-08T07:57:57.028Z,5.20
2023-04-08T07:58:59.548Z,1.40
2023-04-08T08:00:01.874Z,3.80
2023-04-08T08:01:05.030Z,5.40
2023-04-08T08:02:07.285Z,4.10
2023-04-08T08:03:10.688Z,4.40
2023-04-08T08:04:13.065Z,5.30
2023-04-08T08:05:15.630Z,5.20
2023-04-08T08:06:18.198Z,4.80
2023-04-08T08:07:20.242Z,5.40
2023-04-08T08:08:22.302Z,6.40
2023-04-08T08:09:25.521Z,4.90
2023-04-08T08:10:27.768Z,5.10
2023-04-08T08:11:30.506Z,5.30
2023-04-08T08:12:33.164Z,5.50
2023-04-08T08:13:35.349Z,4.90
2023-04-08T08:14:38.013Z,6.30
2023-04-08T08:15:40.248Z,5.30
2023-04-08T08:16:42.515Z,4.70
2023-04-08T08:17:44.596Z,6.70
2023-04-08T08:18:46.842Z,7.60
2023-04-08T08:19:49.083Z,6.20
2023-04-08T08:20:51.302Z,5.50
2023-04-08T08:21:53.456Z,4.50
2023-04-08T08:22:57.860Z,7.30
2023-04-08T08:24:00.205Z,6.20
2023-04-08T08:25:02.281Z,7.50
2023-04-08T08:26:07.131Z,6.90
2023-04-08T08:27:12.988Z,5.70
2023-04-08T08:28:15.192Z,6.30
2023-04-08T08:29:17.929Z,5.70
2023-04-08T08:30:20.960Z,5.90
2023-04-08T08:31:23.907Z,6.36
2023-04-08T08:32:26.508Z,5.73
2023-04-08T08:33:28.863Z,6.40
2023-04-08T08:34:32.073Z,7.50
2023-04-08T08:35:34.323Z,5.80
2023-04-08T08:36:37.116Z,7.20
2023-04-08T08:37:39.321Z,6.90
2023-04-08T08:38:41.391Z,6.30
2023-04-08T08:39:43.469Z,6.80
2023-04-08T08:40:46.756Z,6.60
2023-04-08T08:41:48.893Z,5.30
2023-04-08T08:42:52.202Z,6.90
2023-04-08T08:43:54.594Z,7.70
2023-04-08T08:44:56.760Z,7.70
2023-04-08T08:45:59.245Z,7.20
2023-04-08T08:47:04.632Z,6.55
2023-04-08T08:48:07.469Z,6.70
2023-04-08T08:49:10.069Z,5.90
2023-04-08T08:50:12.430Z,5.30
2023-04-08T08:51:14.699Z,7.20
2023-04-08T08:52:17.078Z,6.20
2023-04-08T08:53:19.270Z,7.30
2023-04-08T08:54:21.417Z,7.10
2023-04-08T08:56:28.391Z,7.40
2023-04-08T08:57:30.672Z,7.80
2023-04-08T08:58:32.811Z,7.30
2023-04-08T08:59:35.409Z,7.50
2023-04-08T09:00:40.107Z,0.20
2023-04-08T09:01:42.286Z,7.40
2023-04-08T09:02:45.223Z,6.30
2023-04-08T09:05:03.657Z,6.10
2023-04-08T09:06:06.590Z,6.90
2023-04-08T09:07:11.129Z,6.40
2023-04-08T09:08:33.848Z,5.90
2023-04-08T09:11:20.061Z,7.50
2023-04-08T09:12:24.349Z,6.30
2023-04-08T09:13:30.386Z,7.60
2023-04-08T09:14:32.681Z,6.60
2023-04-08T09:15:35.166Z,5.70
2023-04-08T09:16:41.040Z,6.80
2023-04-08T09:17:43.479Z,6.90
2023-04-08T09:18:47.389Z,5.80
2023-04-08T09:20:11.477Z,7.00
2023-04-08T09:21:15.227Z,6.70
2023-04-08T09:22:17.935Z,7.40
2023-04-08T09:23:20.091Z,7.60
2023-04-08T09:24:29.689Z,7.80
2023-04-08T09:25:33.264Z,8.10
2023-04-08T09:26:36.411Z,7.00
2023-04-08T09:27:39.687Z,6.73
2023-04-08T09:28:43.790Z,5.70
2023-04-08T09:29:46.426Z,6.60
2023-04-08T09:30:48.586Z,3.60
2023-04-08T09:31:59.373Z,6.80
2023-04-08T09:33:01.746Z,9.00
2023-04-08T09:35:19.599Z,5.70
2023-04-08T09:36:23.216Z,0.60
2023-04-08T09:37:25.797Z,7.00
2023-04-08T09:38:27.958Z,7.80
2023-04-08T09:39:30.646Z,7.20
2023-04-08T09:40:34.511Z,0.20
2023-04-08T09:41:38.611Z,6.70
2023-04-08T09:42:43.007Z,7.80
2023-04-08T09:43:49.870Z,6.80
2023-04-08T09:44:53.578Z,7.70
2023-04-08T09:45:58.452Z,8.40
2023-04-08T09:47:07.267Z,7.40
2023-04-08T09:48:16.498Z,7.60
2023-04-08T09:49:45.647Z,6.50
2023-04-08T09:50:50.387Z,4.10
2023-04-08T09:53:21.007Z,7.30
2023-04-08T09:54:27.379Z,5.90
2023-04-08T09:55:32.266Z,6.10
2023-04-08T09:56:38.152Z,6.30
2023-04-08T09:57:45.430Z,6.10
2023-04-08T09:59:06.391Z,5.90
2023-04-08T10:00:17.482Z,7.50
2023-04-08T10:01:26.183Z,6.00
2023-04-08T10:02:32.027Z,6.40
2023-04-08T10:03:47.455Z,7.30
2023-04-08T10:04:52.445Z,6.30
2023-04-08T10:05:58.399Z,7.00
2023-04-08T10:07:04.095Z,7.00
2023-04-08T10:08:07.868Z,5.90
2023-04-08T10:09:10.570Z,6.10
2023-04-08T10:10:14.671Z,6.20
2023-04-08T10:11:17.193Z,6.00
2023-04-08T10:12:20.421Z,6.90
2023-04-08T10:13:24.432Z,6.30
2023-04-08T10:14:26.666Z,6.70
2023-04-08T10:15:33.705Z,5.70
2023-04-08T10:16:36.538Z,7.00
2023-04-08T10:17:38.655Z,6.60
2023-04-08T10:18:40.802Z,3.90
2023-04-08T10:19:43.351Z,7.50
2023-04-08T10:20:47.425Z,7.50
2023-04-08T10:21:50.167Z,6.30
2023-04-08T10:22:53.157Z,6.18
2023-04-08T10:23:57.694Z,7.30
2023-04-08T10:25:36.078Z,6.30
2023-04-08T10:26:41.851Z,5.60
2023-04-08T10:27:44.982Z,6.20
2023-04-08T10:28:47.621Z,7.40
2023-04-08T10:29:49.568Z,7.60
2023-04-08T10:30:54.318Z,6.60
2023-04-08T10:31:56.709Z,6.80
2023-04-08T10:32:59.593Z,7.00
2023-04-08T10:34:16.277Z,6.91
2023-04-08T10:35:29.431Z,6.10
2023-04-08T10:36:31.803Z,6.40
2023-04-08T10:37:34.001Z,7.60
2023-04-08T10:38:36.682Z,7.10
2023-04-08T10:39:38.890Z,5.60
2023-04-08T10:40:42.126Z,7.10
2023-04-08T10:41:45.428Z,6.50
2023-04-08T10:42:49.855Z,6.50
2023-04-08T10:43:52.280Z,7.70
2023-04-08T10:44:58.684Z,7.70
2023-04-08T10:46:02.054Z,6.70
2023-04-08T10:47:04.210Z,3.30
2023-04-08T10:48:18.153Z,6.90
2023-04-08T10:49:20.387Z,6.40
2023-04-08T10:50:23.063Z,8.30
2023-04-08T10:51:25.689Z,6.60
2023-04-08T10:52:28.356Z,7.70
2023-04-08T10:53:33.995Z,7.70
2023-04-08T10:54:36.987Z,7.80
2023-04-08T10:55:39.212Z,8.27
2023-04-08T10:56:52.071Z,7.90
2023-04-08T10:57:57.000Z,7.50
2023-04-08T10:58:59.103Z,6.70
2023-04-08T11:00:02.075Z,8.30
2023-04-08T11:01:05.814Z,7.45
2023-04-08T11:02:13.547Z,8.80
2023-04-08T11:03:16.145Z,6.90
2023-04-08T11:04:18.487Z,7.50
2023-04-08T11:05:22.873Z,9.10
2023-04-08T11:06:25.637Z,6.40
2023-04-08T11:07:27.808Z,9.50
2023-04-08T11:08:33.587Z,7.20
2023-04-08T11:09:37.233Z,7.40
2023-04-08T11:10:40.115Z,7.80
2023-04-08T11:11:44.347Z,8.27
2023-04-08T11:12:47.414Z,7.60
2023-04-08T11:13:53.793Z,8.10
2023-04-08T11:14:54.695Z,8.80
2023-04-08T11:16:00.382Z,8.80
2023-04-08T11:17:03.435Z,7.20
2023-04-08T11:18:05.869Z,7.73
2023-04-08T11:19:07.930Z,6.90
2023-04-08T11:20:10.929Z,5.80
2023-04-08T11:21:13.079Z,6.90
2023-04-08T11:22:16.563Z,5.40
2023-04-08T11:23:19.061Z,6.40
2023-04-08T11:24:21.440Z,5.60
2023-04-08T11:25:23.832Z,5.60
2023-04-08T11:26:27.066Z,5.82
2023-04-08T11:27:29.468Z,7.73
2023-04-08T11:28:32.292Z,6.50
2023-04-08T11:29:35.007Z,6.90
2023-04-08T11:30:41.461Z,6.09
2023-04-08T11:31:44.610Z,5.20
2023-04-08T11:32:47.538Z,5.00
2023-04-08T11:33:53.468Z,5.80
2023-04-08T11:34:55.759Z,6.60
2023-04-08T11:36:01.720Z,6.50
2023-04-08T11:37:03.971Z,5.80
2023-04-08T11:38:06.131Z,7.00
2023-04-08T11:39:11.764Z,5.90
2023-04-08T11:40:18.002Z,5.20
2023-04-08T11:41:20.369Z,5.50
2023-04-08T11:42:32.945Z,6.00
2023-04-08T11:43:35.469Z,4.90
2023-04-08T11:44:38.078Z,6.30
2023-04-08T11:45:42.471Z,5.60
2023-04-08T11:46:52.419Z,4.70
2023-04-08T11:47:55.631Z,5.60
2023-04-08T11:50:10.162Z,6.10
2023-04-08T11:51:12.365Z,4.80
2023-04-08T11:52:14.631Z,7.30
2023-04-08T11:53:19.423Z,5.60
2023-04-08T11:54:32.249Z,5.90
2023-04-08T12:10:16.443Z,6.80
2023-04-08T12:11:20.236Z,5.09
2023-04-08T12:12:22.656Z,5.10
2023-04-08T12:13:24.914Z,5.30
2023-04-08T12:14:28.609Z,5.90
2023-04-08T12:15:31.255Z,2.00
2023-04-08T12:16:33.732Z,5.60
2023-04-08T12:17:36.123Z,5.20
2023-04-08T12:18:38.517Z,5.10
2023-04-08T12:19:40.732Z,5.60
2023-04-08T12:20:43.758Z,8.80
2023-04-08T12:21:46.098Z,15.73
2023-04-08T12:22:49.381Z,9.60
2023-04-08T12:23:52.153Z,8.00
2023-04-08T12:24:54.838Z,5.50
2023-04-08T12:25:57.178Z,5.40
2023-04-08T12:26:59.655Z,4.30
2023-04-08T12:28:02.017Z,4.80
2023-04-08T12:29:04.133Z,2.60
2023-04-08T12:30:09.463Z,4.00
2023-04-08T12:31:12.176Z,3.50
2023-04-08T12:32:14.876Z,5.00
2023-04-08T12:33:17.069Z,5.10
2023-04-08T12:34:19.396Z,6.60
2023-04-08T12:35:21.723Z,6.80
2023-04-08T12:36:24.297Z,4.70
2023-04-08T12:37:28.642Z,5.10
2023-04-08T12:38:31.105Z,6.60
2023-04-08T12:39:33.708Z,7.70
2023-04-08T12:40:36.452Z,6.20
2023-04-08T12:41:38.877Z,6.50
2023-04-08T12:42:41.225Z,6.50
2023-04-08T12:43:43.974Z,6.10
2023-04-08T12:44:46.659Z,7.30
2023-04-08T12:45:49.011Z,7.80
2023-04-08T12:46:51.576Z,6.20
2023-04-08T12:47:54.581Z,6.10
2023-04-08T12:49:04.171Z,5.90
2023-04-08T12:50:01.625Z,6.10
2023-04-08T12:51:03.901Z,6.20
2023-04-08T12:52:06.217Z,5.00
2023-04-08T12:53:08.427Z,6.70
2023-04-08T12:54:10.739Z,6.70
2023-04-08T12:55:13.526Z,5.50
2023-04-08T12:56:16.684Z,6.00
2023-04-08T12:57:18.937Z,6.80
2023-04-08T12:58:22.633Z,6.60
2023-04-08T12:59:24.999Z,5.50
2023-04-08T13:00:27.247Z,4.40
2023-04-08T13:01:30.193Z,5.00
2023-04-08T13:02:32.759Z,6.30
2023-04-08T13:03:35.113Z,5.10
2023-04-08T13:04:37.693Z,5.50
2023-04-08T13:05:43.678Z,6.80
2023-04-08T13:06:45.311Z,6.90
2023-04-08T13:07:47.844Z,9.09
2023-04-08T13:08:50.393Z,12.10
2023-04-08T13:09:52.882Z,12.70
2023-04-08T13:10:55.301Z,15.50
2023-04-08T13:11:57.572Z,21.20
2023-04-08T13:12:59.778Z,20.30
2023-04-08T13:14:02.094Z,11.40
2023-04-08T13:15:05.322Z,11.70
2023-04-08T13:16:07.985Z,8.70
2023-04-08T13:17:10.800Z,7.80
2023-04-08T13:18:13.587Z,7.91
2023-04-08T13:19:15.897Z,6.00
2023-04-08T13:20:18.397Z,4.80
2023-04-08T13:21:21.167Z,5.60
2023-04-08T13:22:23.562Z,4.45
2023-04-08T13:23:26.179Z,4.80
2023-04-08T13:24:28.380Z,7.00
2023-04-08T13:26:40.706Z,7.50
2023-04-08T13:27:45.337Z,6.45
2023-04-08T13:28:56.612Z,6.50
2023-04-08T13:30:15.242Z,6.80
2023-04-08T13:31:17.736Z,8.10
2023-04-08T13:32:20.186Z,9.20
2023-04-08T13:33:22.442Z,8.90
2023-04-08T13:34:24.800Z,8.50
2023-04-08T13:35:27.011Z,7.70
2023-04-08T13:36:29.412Z,7.10
2023-04-08T13:37:32.104Z,4.40
2023-04-08T13:38:34.212Z,6.60
2023-04-08T13:39:36.661Z,6.00
2023-04-08T13:40:39.077Z,6.20
2023-04-08T13:41:41.148Z,6.50
2023-04-08T13:42:43.384Z,6.20
2023-04-08T13:43:45.723Z,6.20
2023-04-08T13:44:47.961Z,7.30
2023-04-08T13:45:50.010Z,7.70
2023-04-08T13:46:52.688Z,7.00
2023-04-08T13:47:55.024Z,5.60
2023-04-08T13:48:57.874Z,6.50
2023-04-08T13:50:00.181Z,6.50
2023-04-08T13:51:02.565Z,6.60
2023-04-08T13:52:04.880Z,5.10
2023-04-08T13:53:07.197Z,10.20
2023-04-08T13:54:09.937Z,12.20
2023-04-08T13:55:12.312Z,11.60
2023-04-08T13:56:15.032Z,9.00
2023-04-08T13:57:17.367Z,8.50
2023-04-08T13:58:23.970Z,7.50
2023-04-08T13:59:23.804Z,7.10
2023-04-08T14:00:26.235Z,7.20
2023-04-08T14:01:28.833Z,8.10
2023-04-08T14:02:31.710Z,6.00
2023-04-08T14:03:34.560Z,5.90
2023-04-08T14:04:37.466Z,5.36
2023-04-08T14:05:40.321Z,5.27
2023-04-08T14:06:43.783Z,5.36
2023-04-08T14:07:46.136Z,5.70
2023-04-08T14:08:48.342Z,3.80
2023-04-08T14:09:50.548Z,3.40
2023-04-08T14:10:55.207Z,4.90
2023-04-08T14:11:57.628Z,4.80
2023-04-08T14:13:00.473Z,4.00
2023-04-08T14:14:02.782Z,3.50
2023-04-08T14:15:06.286Z,6.30
2023-04-08T14:16:10.140Z,10.20
2023-04-08T14:17:12.363Z,13.50
2023-04-08T14:18:14.978Z,12.00
2023-04-08T14:19:17.365Z,7.80
2023-04-08T14:20:19.971Z,8.10
2023-04-08T14:21:22.637Z,5.00
2023-04-08T14:22:25.081Z,5.80
2023-04-08T14:23:27.811Z,4.50
2023-04-08T14:24:30.165Z,4.55
2023-04-08T14:25:32.484Z,4.70
2023-04-08T14:26:35.377Z,4.90
2023-04-08T14:27:50.953Z,4.82
2023-04-08T14:28:42.583Z,5.10
2023-04-08T14:29:45.481Z,4.00
2023-04-08T14:30:48.635Z,5.60
2023-04-08T14:31:51.103Z,3.73
2023-04-08T14:32:53.449Z,3.90
2023-04-08T14:33:56.286Z,4.00
2023-04-08T14:34:59.217Z,3.45
2023-04-08T14:36:01.650Z,3.64
2023-04-08T14:37:04.076Z,1.90
2023-04-08T14:38:06.716Z,4.70